Parker, WA (98939)

2:10 PM PDT on June 03, 2015 (GMT -0700)
Vicinity I-82 Exit 40 | | Change Station
CLOSE
Current Station
Personal Weather Station
Location: Parker Heights, WA
Elevation: 1013 ft
Nearby Weather Stations

Elev 1013 ft 46.52 °N, 120.45 °W | Updated 16 seconds ago

Mostly Cloudy
Mostly Cloudy
72.1 °F
Feels Like 77 °F
N
3.8
Wind Variable Wind from NE
Gusts 3.8 mph

Today
High -- | Low -- °F
--% Chance of Precip.
Yesterday
High -- | Low -- °F
Precip. -- in
5:11 AM 8:48 PM
Full, 98% visible
Pressure 29.94 in
Visibility 10.0 miles
Clouds Mostly Cloudy 8000 ft
Heat Index 77 °F
Dew Point 44 °F
Humidity 36%
Rainfall 0.00 in
Snow Depth Not available.
UV 6 out of 12
Pollen 8.40 out of 12
Air Quality Not available.
Flu Activity Sporadic
METAR KYKM 032053Z COR VRB04KT 10SM BKN080 22/06 A2994 RMK AO2 SLP136 T02220061 57012

More Conditions Fewer Conditions

Pressure 29.94 in
Visibility 10.0 miles
Clouds Mostly Cloudy 8000 ft
Heat Index 77 °F
Dew Point 44 °F
Humidity 36%
Rainfall 0.00 in
Snow Depth Not available.
UV 6 out of 12
Pollen 8.40 out of 12
Air Quality Not available.
Flu Activity Sporadic
METAR KYKM 032053Z COR VRB04KT 10SM BKN080 22/06 A2994 RMK AO2 SLP136 T02220061 57012

More Conditions Fewer Conditions

10-Day Weather Forecast

×

Almanac

Astronomy

Jun. 03, 2015 Rise Set
Actual Time
Civil Twilight
Nautical Twilight
Astronomical Twilight
Moon
Length of Visible Light
Length of Day
Tomorrow will be .
, % of the Moon is Illuminated

Today's Extremes

State Highs State Lows

Community

WunderPhotos

Upload Photos

1,826,282 photos uploaded!

WunderBlogs® & News

Nearby

Air Quality

  Air Quality AQ Index Pollutant
Not available.

Snow Depth

Station Depth Elevation

Earthquake Activity

City Distance Mag. Time & Date
Minimum magnitude displayed is 2.5.

Coastal Water Temperatures

Place Temperature

Stations

Nearby Weather Stations

Station Location Temp. Windchill Dew Point Humidity Wind Precip. Elev Updated Type